sensor_id;sensor_type;location;lat;lon;timestamp;P1;durP1;ratioP1;P2;durP2;ratioP2
56429;SDS011;42332;52.136;20.666;2023-05-07T00:01:14;9.15;;;3.50;;
56429;SDS011;42332;52.136;20.666;2023-05-07T00:03:40;10.70;;;3.83;;
56429;SDS011;42332;52.136;20.666;2023-05-07T00:06:05;7.18;;;3.28;;
56429;SDS011;42332;52.136;20.666;2023-05-07T00:08:30;7.53;;;3.50;;
56429;SDS011;42332;52.136;20.666;2023-05-07T00:10:56;11.73;;;4.22;;
56429;SDS011;42332;52.136;20.666;2023-05-07T00:13:21;11.27;;;3.20;;
56429;SDS011;42332;52.136;20.666;2023-05-07T00:15:46;8.45;;;3.45;;
56429;SDS011;42332;52.136;20.666;2023-05-07T00:18:12;9.43;;;3.88;;
56429;SDS011;42332;52.136;20.666;2023-05-07T00:20:37;8.55;;;4.05;;
56429;SDS011;42332;52.136;20.666;2023-05-07T00:23:02;8.77;;;3.53;;
56429;SDS011;42332;52.136;20.666;2023-05-07T00:25:28;7.53;;;3.53;;
56429;SDS011;42332;52.136;20.666;2023-05-07T00:27:53;10.05;;;3.50;;
56429;SDS011;42332;52.136;20.666;2023-05-07T00:30:18;8.82;;;3.22;;
56429;SDS011;42332;52.136;20.666;2023-05-07T00:32:44;7.57;;;3.10;;
56429;SDS011;42332;52.136;20.666;2023-05-07T00:35:10;7.97;;;3.10;;
56429;SDS011;42332;52.136;20.666;2023-05-07T00:37:36;9.55;;;3.58;;
56429;SDS011;42332;52.136;20.666;2023-05-07T00:40:01;7.70;;;3.47;;
56429;SDS011;42332;52.136;20.666;2023-05-07T00:42:29;7.85;;;3.33;;
56429;SDS011;42332;52.136;20.666;2023-05-07T00:44:57;5.80;;;2.88;;
56429;SDS011;42332;52.136;20.666;2023-05-07T00:47:22;5.50;;;2.60;;
56429;SDS011;42332;52.136;20.666;2023-05-07T00:49:48;8.73;;;3.25;;
56429;SDS011;42332;52.136;20.666;2023-05-07T00:52:14;8.88;;;3.13;;
56429;SDS011;42332;52.136;20.666;2023-05-07T00:54:41;8.38;;;3.42;;
56429;SDS011;42332;52.136;20.666;2023-05-07T00:57:06;12.05;;;3.80;;
56429;SDS011;42332;52.136;20.666;2023-05-07T00:59:34;9.23;;;3.67;;
56429;SDS011;42332;52.136;20.666;2023-05-07T01:02:00;7.07;;;3.47;;
56429;SDS011;42332;52.136;20.666;2023-05-07T01:04:25;9.38;;;3.50;;
56429;SDS011;42332;52.136;20.666;2023-05-07T01:06:51;10.57;;;3.75;;
56429;SDS011;42332;52.136;20.666;2023-05-07T01:09:17;7.60;;;3.65;;
56429;SDS011;42332;52.136;20.666;2023-05-07T01:11:45;7.38;;;3.35;;
56429;SDS011;42332;52.136;20.666;2023-05-07T01:14:10;7.30;;;3.35;;
56429;SDS011;42332;52.136;20.666;2023-05-07T01:16:36;8.27;;;4.00;;
56429;SDS011;42332;52.136;20.666;2023-05-07T01:19:02;6.80;;;2.95;;
56429;SDS011;42332;52.136;20.666;2023-05-07T01:21:27;7.47;;;3.25;;
56429;SDS011;42332;52.136;20.666;2023-05-07T01:23:58;8.10;;;3.00;;
56429;SDS011;42332;52.136;20.666;2023-05-07T01:26:23;8.02;;;3.33;;
56429;SDS011;42332;52.136;20.666;2023-05-07T01:28:48;7.63;;;3.20;;
56429;SDS011;42332;52.136;20.666;2023-05-07T01:31:14;7.05;;;3.08;;
56429;SDS011;42332;52.136;20.666;2023-05-07T01:33:41;9.07;;;3.20;;
56429;SDS011;42332;52.136;20.666;2023-05-07T01:36:07;8.05;;;3.20;;
56429;SDS011;42332;52.136;20.666;2023-05-07T01:38:34;6.53;;;3.35;;
56429;SDS011;42332;52.136;20.666;2023-05-07T01:41:00;9.48;;;3.28;;
56429;SDS011;42332;52.136;20.666;2023-05-07T01:43:26;11.18;;;3.15;;
56429;SDS011;42332;52.136;20.666;2023-05-07T01:45:51;11.30;;;3.38;;
56429;SDS011;42332;52.136;20.666;2023-05-07T01:48:17;7.80;;;2.97;;
56429;SDS011;42332;52.136;20.666;2023-05-07T01:50:43;6.65;;;3.20;;
56429;SDS011;42332;52.136;20.666;2023-05-07T01:53:09;7.85;;;2.70;;
56429;SDS011;42332;52.136;20.666;2023-05-07T01:55:34;7.85;;;2.92;;
56429;SDS011;42332;52.136;20.666;2023-05-07T01:58:01;7.10;;;2.85;;
56429;SDS011;42332;52.136;20.666;2023-05-07T02:00:27;10.30;;;2.70;;
56429;SDS011;42332;52.136;20.666;2023-05-07T02:02:52;9.40;;;2.80;;
56429;SDS011;42332;52.136;20.666;2023-05-07T02:05:18;7.57;;;3.42;;
56429;SDS011;42332;52.136;20.666;2023-05-07T02:07:43;8.40;;;3.55;;
56429;SDS011;42332;52.136;20.666;2023-05-07T02:10:09;5.65;;;2.72;;
56429;SDS011;42332;52.136;20.666;2023-05-07T02:12:34;7.82;;;3.20;;
56429;SDS011;42332;52.136;20.666;2023-05-07T02:15:00;8.85;;;3.42;;
56429;SDS011;42332;52.136;20.666;2023-05-07T02:17:25;6.78;;;3.25;;
56429;SDS011;42332;52.136;20.666;2023-05-07T02:19:51;8.25;;;3.22;;
56429;SDS011;42332;52.136;20.666;2023-05-07T02:22:16;8.75;;;2.80;;
56429;SDS011;42332;52.136;20.666;2023-05-07T02:24:41;7.45;;;3.53;;
56429;SDS011;42332;52.136;20.666;2023-05-07T02:27:07;6.47;;;3.00;;
56429;SDS011;42332;52.136;20.666;2023-05-07T02:29:32;6.85;;;3.03;;
56429;SDS011;42332;52.136;20.666;2023-05-07T02:31:57;6.38;;;3.13;;
56429;SDS011;42332;52.136;20.666;2023-05-07T02:34:23;6.18;;;3.08;;
56429;SDS011;42332;52.136;20.666;2023-05-07T02:36:48;5.47;;;2.70;;
56429;SDS011;42332;52.136;20.666;2023-05-07T02:39:13;6.38;;;3.08;;
56429;SDS011;42332;52.136;20.666;2023-05-07T02:41:39;7.05;;;2.70;;
56429;SDS011;42332;52.136;20.666;2023-05-07T02:44:04;7.30;;;3.03;;
56429;SDS011;42332;52.136;20.666;2023-05-07T02:46:30;6.80;;;3.00;;
56429;SDS011;42332;52.136;20.666;2023-05-07T02:48:55;7.82;;;2.78;;
56429;SDS011;42332;52.136;20.666;2023-05-07T02:51:21;7.60;;;3.28;;
56429;SDS011;42332;52.136;20.666;2023-05-07T02:53:46;8.57;;;3.10;;
56429;SDS011;42332;52.136;20.666;2023-05-07T02:56:12;6.90;;;2.85;;
56429;SDS011;42332;52.136;20.666;2023-05-07T02:58:37;11.13;;;2.75;;
56429;SDS011;42332;52.136;20.666;2023-05-07T03:01:04;7.25;;;3.03;;
56429;SDS011;42332;52.136;20.666;2023-05-07T03:03:30;6.55;;;3.00;;
56429;SDS011;42332;52.136;20.666;2023-05-07T03:05:55;11.85;;;3.30;;
56429;SDS011;42332;52.136;20.666;2023-05-07T03:08:20;5.45;;;2.60;;
56429;SDS011;42332;52.136;20.666;2023-05-07T03:10:46;8.48;;;2.70;;
56429;SDS011;42332;52.136;20.666;2023-05-07T03:13:11;6.53;;;2.40;;
56429;SDS011;42332;52.136;20.666;2023-05-07T03:15:37;6.80;;;3.03;;
56429;SDS011;42332;52.136;20.666;2023-05-07T03:18:02;7.63;;;2.75;;
56429;SDS011;42332;52.136;20.666;2023-05-07T03:20:27;6.43;;;2.70;;
56429;SDS011;42332;52.136;20.666;2023-05-07T03:22:53;6.22;;;3.08;;
56429;SDS011;42332;52.136;20.666;2023-05-07T03:25:18;8.38;;;3.28;;
56429;SDS011;42332;52.136;20.666;2023-05-07T03:27:43;7.18;;;2.83;;
56429;SDS011;42332;52.136;20.666;2023-05-07T03:30:09;8.25;;;3.03;;
56429;SDS011;42332;52.136;20.666;2023-05-07T03:32:35;10.02;;;3.05;;
56429;SDS011;42332;52.136;20.666;2023-05-07T03:35:01;10.55;;;3.67;;
56429;SDS011;42332;52.136;20.666;2023-05-07T03:37:27;7.30;;;2.75;;
56429;SDS011;42332;52.136;20.666;2023-05-07T03:39:52;8.27;;;2.95;;
56429;SDS011;42332;52.136;20.666;2023-05-07T03:42:17;10.07;;;3.10;;
56429;SDS011;42332;52.136;20.666;2023-05-07T03:44:43;6.63;;;2.80;;
56429;SDS011;42332;52.136;20.666;2023-05-07T03:47:08;6.22;;;2.78;;
56429;SDS011;42332;52.136;20.666;2023-05-07T03:49:35;5.95;;;2.17;;
56429;SDS011;42332;52.136;20.666;2023-05-07T03:52:00;8.70;;;3.53;;
56429;SDS011;42332;52.136;20.666;2023-05-07T03:54:25;4.72;;;2.47;;
56429;SDS011;42332;52.136;20.666;2023-05-07T03:56:51;6.03;;;3.00;;
56429;SDS011;42332;52.136;20.666;2023-05-07T03:59:16;5.63;;;2.60;;
56429;SDS011;42332;52.136;20.666;2023-05-07T04:01:41;4.82;;;2.33;;
56429;SDS011;42332;52.136;20.666;2023-05-07T04:04:06;6.70;;;2.65;;
56429;SDS011;42332;52.136;20.666;2023-05-07T04:06:32;6.05;;;2.72;;
56429;SDS011;42332;52.136;20.666;2023-05-07T04:08:57;5.97;;;2.70;;
56429;SDS011;42332;52.136;20.666;2023-05-07T04:11:22;5.65;;;2.33;;
56429;SDS011;42332;52.136;20.666;2023-05-07T04:13:48;4.80;;;2.70;;
56429;SDS011;42332;52.136;20.666;2023-05-07T04:16:13;4.30;;;2.03;;
56429;SDS011;42332;52.136;20.666;2023-05-07T04:18:38;5.53;;;2.65;;
56429;SDS011;42332;52.136;20.666;2023-05-07T04:21:04;5.97;;;2.75;;
56429;SDS011;42332;52.136;20.666;2023-05-07T04:23:30;6.63;;;2.63;;
56429;SDS011;42332;52.136;20.666;2023-05-07T04:25:55;7.10;;;2.95;;
56429;SDS011;42332;52.136;20.666;2023-05-07T04:28:21;5.88;;;2.80;;
56429;SDS011;42332;52.136;20.666;2023-05-07T04:30:46;5.13;;;2.38;;
56429;SDS011;42332;52.136;20.666;2023-05-07T04:33:11;6.18;;;2.30;;
56429;SDS011;42332;52.136;20.666;2023-05-07T04:35:37;6.50;;;3.05;;
56429;SDS011;42332;52.136;20.666;2023-05-07T04:38:02;6.45;;;2.40;;
56429;SDS011;42332;52.136;20.666;2023-05-07T04:40:28;6.07;;;2.58;;
56429;SDS011;42332;52.136;20.666;2023-05-07T04:42:53;6.10;;;2.38;;
56429;SDS011;42332;52.136;20.666;2023-05-07T04:45:19;5.18;;;2.00;;
56429;SDS011;42332;52.136;20.666;2023-05-07T04:47:45;3.97;;;1.88;;
56429;SDS011;42332;52.136;20.666;2023-05-07T04:50:10;5.90;;;2.60;;
56429;SDS011;42332;52.136;20.666;2023-05-07T04:52:35;5.82;;;2.70;;
56429;SDS011;42332;52.136;20.666;2023-05-07T04:55:01;5.78;;;2.63;;
56429;SDS011;42332;52.136;20.666;2023-05-07T04:57:26;6.35;;;2.63;;
56429;SDS011;42332;52.136;20.666;2023-05-07T04:59:52;7.45;;;2.60;;
56429;SDS011;42332;52.136;20.666;2023-05-07T05:02:18;6.18;;;2.80;;
56429;SDS011;42332;52.136;20.666;2023-05-07T05:04:43;7.18;;;2.83;;
56429;SDS011;42332;52.136;20.666;2023-05-07T05:07:08;6.15;;;2.45;;
56429;SDS011;42332;52.136;20.666;2023-05-07T05:09:34;6.03;;;2.40;;
56429;SDS011;42332;52.136;20.666;2023-05-07T05:11:59;5.82;;;2.80;;
56429;SDS011;42332;52.136;20.666;2023-05-07T05:14:25;5.10;;;2.33;;
56429;SDS011;42332;52.136;20.666;2023-05-07T05:16:50;7.22;;;2.80;;
56429;SDS011;42332;52.136;20.666;2023-05-07T05:19:15;6.53;;;2.80;;
56429;SDS011;42332;52.136;20.666;2023-05-07T05:21:41;6.60;;;2.97;;
56429;SDS011;42332;52.136;20.666;2023-05-07T05:24:06;7.25;;;3.03;;
56429;SDS011;42332;52.136;20.666;2023-05-07T05:26:32;5.75;;;3.17;;
56429;SDS011;42332;52.136;20.666;2023-05-07T05:28:57;6.25;;;2.88;;
56429;SDS011;42332;52.136;20.666;2023-05-07T05:31:22;7.25;;;3.03;;
56429;SDS011;42332;52.136;20.666;2023-05-07T05:33:48;8.13;;;3.05;;
56429;SDS011;42332;52.136;20.666;2023-05-07T05:36:13;7.07;;;2.83;;
56429;SDS011;42332;52.136;20.666;2023-05-07T05:38:39;8.18;;;3.47;;
56429;SDS011;42332;52.136;20.666;2023-05-07T05:41:05;7.63;;;2.63;;
56429;SDS011;42332;52.136;20.666;2023-05-07T05:43:30;5.97;;;2.60;;
56429;SDS011;42332;52.136;20.666;2023-05-07T05:45:56;6.45;;;2.55;;
56429;SDS011;42332;52.136;20.666;2023-05-07T05:48:22;9.13;;;2.53;;
56429;SDS011;42332;52.136;20.666;2023-05-07T05:50:47;5.90;;;1.75;;
56429;SDS011;42332;52.136;20.666;2023-05-07T05:53:13;6.15;;;2.40;;
56429;SDS011;42332;52.136;20.666;2023-05-07T05:55:38;8.68;;;2.60;;
56429;SDS011;42332;52.136;20.666;2023-05-07T05:58:03;5.40;;;2.15;;
56429;SDS011;42332;52.136;20.666;2023-05-07T06:00:29;8.55;;;2.70;;
56429;SDS011;42332;52.136;20.666;2023-05-07T06:02:54;8.10;;;2.85;;
56429;SDS011;42332;52.136;20.666;2023-05-07T06:05:19;6.90;;;2.67;;
56429;SDS011;42332;52.136;20.666;2023-05-07T06:07:45;4.20;;;1.95;;
56429;SDS011;42332;52.136;20.666;2023-05-07T06:10:10;6.45;;;2.58;;
56429;SDS011;42332;52.136;20.666;2023-05-07T06:12:35;7.93;;;2.30;;
56429;SDS011;42332;52.136;20.666;2023-05-07T06:15:01;8.32;;;2.53;;
56429;SDS011;42332;52.136;20.666;2023-05-07T06:17:26;5.55;;;2.13;;
56429;SDS011;42332;52.136;20.666;2023-05-07T06:19:52;6.82;;;2.08;;
56429;SDS011;42332;52.136;20.666;2023-05-07T06:22:17;5.78;;;2.08;;
56429;SDS011;42332;52.136;20.666;2023-05-07T06:24:42;5.18;;;2.20;;
56429;SDS011;42332;52.136;20.666;2023-05-07T06:27:08;5.03;;;2.17;;
56429;SDS011;42332;52.136;20.666;2023-05-07T06:29:33;10.45;;;2.45;;
56429;SDS011;42332;52.136;20.666;2023-05-07T06:32:08;5.97;;;2.22;;
56429;SDS011;42332;52.136;20.666;2023-05-07T06:34:34;7.38;;;2.20;;
56429;SDS011;42332;52.136;20.666;2023-05-07T06:37:00;7.00;;;1.98;;
56429;SDS011;42332;52.136;20.666;2023-05-07T06:39:26;5.10;;;2.10;;
56429;SDS011;42332;52.136;20.666;2023-05-07T06:41:51;5.45;;;2.22;;
56429;SDS011;42332;52.136;20.666;2023-05-07T06:44:16;6.20;;;2.22;;
56429;SDS011;42332;52.136;20.666;2023-05-07T06:46:42;5.13;;;2.15;;
56429;SDS011;42332;52.136;20.666;2023-05-07T06:49:07;4.10;;;1.88;;
56429;SDS011;42332;52.136;20.666;2023-05-07T06:51:32;5.45;;;2.45;;
56429;SDS011;42332;52.136;20.666;2023-05-07T06:53:58;4.28;;;2.10;;
56429;SDS011;42332;52.136;20.666;2023-05-07T06:56:23;3.70;;;1.90;;
56429;SDS011;42332;52.136;20.666;2023-05-07T06:58:49;6.90;;;2.10;;
56429;SDS011;42332;52.136;20.666;2023-05-07T07:01:14;4.43;;;2.10;;
56429;SDS011;42332;52.136;20.666;2023-05-07T07:03:40;5.18;;;1.98;;
56429;SDS011;42332;52.136;20.666;2023-05-07T07:06:05;5.90;;;1.88;;
56429;SDS011;42332;52.136;20.666;2023-05-07T07:08:30;3.85;;;1.60;;
56429;SDS011;42332;52.136;20.666;2023-05-07T07:10:56;6.95;;;2.00;;
56429;SDS011;42332;52.136;20.666;2023-05-07T07:13:21;7.57;;;1.70;;
56429;SDS011;42332;52.136;20.666;2023-05-07T07:15:46;5.13;;;2.17;;
56429;SDS011;42332;52.136;20.666;2023-05-07T07:18:12;3.78;;;1.80;;
56429;SDS011;42332;52.136;20.666;2023-05-07T07:20:37;4.20;;;1.92;;
56429;SDS011;42332;52.136;20.666;2023-05-07T07:23:02;4.45;;;1.90;;
56429;SDS011;42332;52.136;20.666;2023-05-07T07:25:28;5.32;;;2.03;;
56429;SDS011;42332;52.136;20.666;2023-05-07T07:27:53;4.40;;;2.00;;
56429;SDS011;42332;52.136;20.666;2023-05-07T07:30:19;6.40;;;2.30;;
56429;SDS011;42332;52.136;20.666;2023-05-07T07:32:44;6.20;;;1.98;;
56429;SDS011;42332;52.136;20.666;2023-05-07T07:35:09;4.47;;;1.88;;
56429;SDS011;42332;52.136;20.666;2023-05-07T07:37:35;3.47;;;1.83;;
56429;SDS011;42332;52.136;20.666;2023-05-07T07:40:00;6.25;;;2.15;;
56429;SDS011;42332;52.136;20.666;2023-05-07T07:42:26;6.38;;;2.40;;
56429;SDS011;42332;52.136;20.666;2023-05-07T07:44:51;5.78;;;2.25;;
56429;SDS011;42332;52.136;20.666;2023-05-07T07:47:17;2.85;;;1.15;;
56429;SDS011;42332;52.136;20.666;2023-05-07T07:49:42;9.57;;;2.20;;
56429;SDS011;42332;52.136;20.666;2023-05-07T07:52:07;4.80;;;2.10;;
56429;SDS011;42332;52.136;20.666;2023-05-07T07:54:33;6.75;;;1.95;;
56429;SDS011;42332;52.136;20.666;2023-05-07T07:56:58;5.28;;;2.17;;
56429;SDS011;42332;52.136;20.666;2023-05-07T07:59:23;4.75;;;2.00;;
56429;SDS011;42332;52.136;20.666;2023-05-07T08:01:49;2.72;;;1.45;;
56429;SDS011;42332;52.136;20.666;2023-05-07T08:04:15;4.45;;;2.00;;
56429;SDS011;42332;52.136;20.666;2023-05-07T08:06:40;6.20;;;2.15;;
56429;SDS011;42332;52.136;20.666;2023-05-07T08:09:06;4.80;;;1.80;;
56429;SDS011;42332;52.136;20.666;2023-05-07T08:11:31;4.72;;;2.15;;
56429;SDS011;42332;52.136;20.666;2023-05-07T08:13:56;7.82;;;2.10;;
56429;SDS011;42332;52.136;20.666;2023-05-07T08:16:22;6.43;;;2.70;;
56429;SDS011;42332;52.136;20.666;2023-05-07T08:18:47;3.85;;;1.50;;
56429;SDS011;42332;52.136;20.666;2023-05-07T08:21:13;5.30;;;2.03;;
56429;SDS011;42332;52.136;20.666;2023-05-07T08:23:38;8.20;;;2.53;;
56429;SDS011;42332;52.136;20.666;2023-05-07T08:26:03;7.13;;;2.40;;
56429;SDS011;42332;52.136;20.666;2023-05-07T08:28:28;6.70;;;2.30;;
56429;SDS011;42332;52.136;20.666;2023-05-07T08:30:54;4.53;;;2.33;;
56429;SDS011;42332;52.136;20.666;2023-05-07T08:33:21;4.90;;;2.22;;
56429;SDS011;42332;52.136;20.666;2023-05-07T08:35:46;7.32;;;2.47;;
56429;SDS011;42332;52.136;20.666;2023-05-07T08:38:12;5.63;;;2.70;;
56429;SDS011;42332;52.136;20.666;2023-05-07T08:40:37;4.65;;;2.22;;
56429;SDS011;42332;52.136;20.666;2023-05-07T08:43:05;7.45;;;2.60;;
56429;SDS011;42332;52.136;20.666;2023-05-07T08:45:30;4.97;;;2.20;;
56429;SDS011;42332;52.136;20.666;2023-05-07T08:48:05;6.07;;;2.28;;
56429;SDS011;42332;52.136;20.666;2023-05-07T08:50:35;4.65;;;1.88;;
56429;SDS011;42332;52.136;20.666;2023-05-07T08:53:02;5.32;;;2.30;;
56429;SDS011;42332;52.136;20.666;2023-05-07T08:55:28;8.32;;;2.17;;
56429;SDS011;42332;52.136;20.666;2023-05-07T08:57:53;13.88;;;3.92;;
56429;SDS011;42332;52.136;20.666;2023-05-07T09:00:19;6.32;;;2.63;;
56429;SDS011;42332;52.136;20.666;2023-05-07T09:02:44;7.03;;;2.90;;
56429;SDS011;42332;52.136;20.666;2023-05-07T09:05:09;11.52;;;2.78;;
56429;SDS011;42332;52.136;20.666;2023-05-07T09:07:35;5.55;;;2.17;;
56429;SDS011;42332;52.136;20.666;2023-05-07T09:10:04;6.03;;;2.50;;
56429;SDS011;42332;52.136;20.666;2023-05-07T09:12:29;6.50;;;2.38;;
56429;SDS011;42332;52.136;20.666;2023-05-07T09:14:55;9.00;;;2.10;;
56429;SDS011;42332;52.136;20.666;2023-05-07T09:17:21;6.88;;;2.30;;
56429;SDS011;42332;52.136;20.666;2023-05-07T09:19:46;4.65;;;1.85;;
56429;SDS011;42332;52.136;20.666;2023-05-07T09:22:12;4.30;;;2.08;;
56429;SDS011;42332;52.136;20.666;2023-05-07T09:24:38;6.03;;;2.00;;
56429;SDS011;42332;52.136;20.666;2023-05-07T09:27:06;5.68;;;2.22;;
56429;SDS011;42332;52.136;20.666;2023-05-07T09:29:33;6.50;;;1.90;;
56429;SDS011;42332;52.136;20.666;2023-05-07T09:32:01;4.78;;;1.83;;
56429;SDS011;42332;52.136;20.666;2023-05-07T09:34:28;3.88;;;1.73;;
56429;SDS011;42332;52.136;20.666;2023-05-07T09:36:54;3.63;;;1.73;;
56429;SDS011;42332;52.136;20.666;2023-05-07T09:39:19;5.97;;;1.98;;
56429;SDS011;42332;52.136;20.666;2023-05-07T09:41:45;4.90;;;1.80;;
56429;SDS011;42332;52.136;20.666;2023-05-07T09:44:12;4.13;;;1.73;;
56429;SDS011;42332;52.136;20.666;2023-05-07T09:46:38;4.65;;;1.75;;
56429;SDS011;42332;52.136;20.666;2023-05-07T09:49:03;5.18;;;1.58;;
56429;SDS011;42332;52.136;20.666;2023-05-07T09:51:35;7.10;;;1.75;;
56429;SDS011;42332;52.136;20.666;2023-05-07T09:54:04;3.92;;;1.60;;
56429;SDS011;42332;52.136;20.666;2023-05-07T09:56:30;8.82;;;1.67;;
56429;SDS011;42332;52.136;20.666;2023-05-07T09:58:57;4.75;;;1.58;;
56429;SDS011;42332;52.136;20.666;2023-05-07T10:01:25;3.65;;;1.40;;
56429;SDS011;42332;52.136;20.666;2023-05-07T10:03:50;4.50;;;1.95;;
56429;SDS011;42332;52.136;20.666;2023-05-07T10:06:16;4.47;;;1.75;;
56429;SDS011;42332;52.136;20.666;2023-05-07T10:08:42;8.27;;;1.65;;
56429;SDS011;42332;52.136;20.666;2023-05-07T10:11:08;3.65;;;1.58;;
56429;SDS011;42332;52.136;20.666;2023-05-07T10:13:33;4.20;;;1.67;;
56429;SDS011;42332;52.136;20.666;2023-05-07T10:16:03;5.45;;;1.70;;
56429;SDS011;42332;52.136;20.666;2023-05-07T10:20:58;5.85;;;2.13;;
56429;SDS011;42332;52.136;20.666;2023-05-07T10:23:32;5.28;;;1.77;;
56429;SDS011;42332;52.136;20.666;2023-05-07T10:25:59;6.95;;;2.03;;
56429;SDS011;42332;52.136;20.666;2023-05-07T10:28:26;5.13;;;2.05;;
56429;SDS011;42332;52.136;20.666;2023-05-07T10:31:11;9.82;;;2.10;;
56429;SDS011;42332;52.136;20.666;2023-05-07T10:33:44;3.70;;;1.58;;
56429;SDS011;42332;52.136;20.666;2023-05-07T10:36:10;5.60;;;2.20;;
56429;SDS011;42332;52.136;20.666;2023-05-07T10:38:35;4.03;;;1.90;;
56429;SDS011;42332;52.136;20.666;2023-05-07T10:41:01;5.93;;;2.25;;
56429;SDS011;42332;52.136;20.666;2023-05-07T10:43:42;5.30;;;2.00;;
56429;SDS011;42332;52.136;20.666;2023-05-07T10:46:18;7.10;;;2.28;;
56429;SDS011;42332;52.136;20.666;2023-05-07T10:51:28;6.25;;;2.25;;
56429;SDS011;42332;52.136;20.666;2023-05-07T10:56:36;6.45;;;2.55;;
56429;SDS011;42332;52.136;20.666;2023-05-07T11:01:49;6.20;;;2.15;;
56429;SDS011;42332;52.136;20.666;2023-05-07T11:04:31;5.50;;;2.00;;
56429;SDS011;42332;52.136;20.666;2023-05-07T11:12:46;5.10;;;2.13;;
56429;SDS011;42332;52.136;20.666;2023-05-07T11:15:15;5.65;;;2.30;;
56429;SDS011;42332;52.136;20.666;2023-05-07T11:17:58;4.10;;;1.83;;
56429;SDS011;42332;52.136;20.666;2023-05-07T11:26:02;4.65;;;1.60;;
56429;SDS011;42332;52.136;20.666;2023-05-07T11:28:29;4.40;;;1.80;;
56429;SDS011;42332;52.136;20.666;2023-05-07T11:30:55;6.10;;;2.28;;
56429;SDS011;42332;52.136;20.666;2023-05-07T11:33:21;6.10;;;2.00;;
56429;SDS011;42332;52.136;20.666;2023-05-07T11:35:47;4.70;;;1.67;;
56429;SDS011;42332;52.136;20.666;2023-05-07T11:38:12;4.35;;;1.60;;
56429;SDS011;42332;52.136;20.666;2023-05-07T11:40:50;4.03;;;1.45;;
56429;SDS011;42332;52.136;20.666;2023-05-07T11:43:23;7.22;;;2.05;;
56429;SDS011;42332;52.136;20.666;2023-05-07T11:45:49;3.35;;;1.38;;
56429;SDS011;42332;52.136;20.666;2023-05-07T11:48:15;4.57;;;1.70;;
56429;SDS011;42332;52.136;20.666;2023-05-07T11:50:54;4.47;;;1.60;;
56429;SDS011;42332;52.136;20.666;2023-05-07T11:53:25;7.07;;;1.55;;
56429;SDS011;42332;52.136;20.666;2023-05-07T11:55:52;5.90;;;1.58;;
56429;SDS011;42332;52.136;20.666;2023-05-07T11:58:20;11.05;;;2.03;;
56429;SDS011;42332;52.136;20.666;2023-05-07T12:00:50;4.20;;;1.83;;
56429;SDS011;42332;52.136;20.666;2023-05-07T12:03:16;4.18;;;1.60;;
56429;SDS011;42332;52.136;20.666;2023-05-07T12:05:42;4.38;;;1.90;;
56429;SDS011;42332;52.136;20.666;2023-05-07T12:08:08;4.97;;;1.38;;
56429;SDS011;42332;52.136;20.666;2023-05-07T12:10:34;8.52;;;1.88;;
56429;SDS011;42332;52.136;20.666;2023-05-07T12:12:59;4.15;;;1.80;;
56429;SDS011;42332;52.136;20.666;2023-05-07T12:15:24;4.50;;;1.70;;
56429;SDS011;42332;52.136;20.666;2023-05-07T12:17:50;4.47;;;1.35;;
56429;SDS011;42332;52.136;20.666;2023-05-07T12:20:17;4.50;;;1.65;;
56429;SDS011;42332;52.136;20.666;2023-05-07T12:22:43;6.40;;;1.77;;
56429;SDS011;42332;52.136;20.666;2023-05-07T12:25:09;2.58;;;1.35;;
56429;SDS011;42332;52.136;20.666;2023-05-07T12:27:36;4.97;;;1.70;;
56429;SDS011;42332;52.136;20.666;2023-05-07T12:30:03;4.50;;;1.65;;
56429;SDS011;42332;52.136;20.666;2023-05-07T12:32:28;6.47;;;1.20;;
56429;SDS011;42332;52.136;20.666;2023-05-07T12:34:54;6.82;;;1.70;;
56429;SDS011;42332;52.136;20.666;2023-05-07T12:37:23;5.22;;;1.60;;
56429;SDS011;42332;52.136;20.666;2023-05-07T12:39:49;3.90;;;1.60;;
56429;SDS011;42332;52.136;20.666;2023-05-07T12:42:28;3.53;;;1.40;;
56429;SDS011;42332;52.136;20.666;2023-05-07T12:44:58;5.30;;;1.92;;
56429;SDS011;42332;52.136;20.666;2023-05-07T12:47:23;6.88;;;1.65;;
56429;SDS011;42332;52.136;20.666;2023-05-07T12:49:48;4.57;;;1.65;;
56429;SDS011;42332;52.136;20.666;2023-05-07T12:52:14;3.75;;;1.38;;
56429;SDS011;42332;52.136;20.666;2023-05-07T12:54:39;4.30;;;1.70;;
56429;SDS011;42332;52.136;20.666;2023-05-07T12:57:05;3.50;;;1.30;;
56429;SDS011;42332;52.136;20.666;2023-05-07T13:01:58;6.88;;;1.80;;
56429;SDS011;42332;52.136;20.666;2023-05-07T13:04:26;4.72;;;1.42;;
56429;SDS011;42332;52.136;20.666;2023-05-07T13:06:51;3.55;;;1.50;;
56429;SDS011;42332;52.136;20.666;2023-05-07T13:09:17;3.85;;;1.40;;
56429;SDS011;42332;52.136;20.666;2023-05-07T13:11:42;2.88;;;1.17;;
56429;SDS011;42332;52.136;20.666;2023-05-07T13:14:07;3.72;;;1.50;;
56429;SDS011;42332;52.136;20.666;2023-05-07T13:16:33;5.95;;;1.45;;
56429;SDS011;42332;52.136;20.666;2023-05-07T13:18:58;3.72;;;1.38;;
56429;SDS011;42332;52.136;20.666;2023-05-07T13:21:23;3.78;;;1.70;;
56429;SDS011;42332;52.136;20.666;2023-05-07T13:23:49;4.28;;;1.50;;
56429;SDS011;42332;52.136;20.666;2023-05-07T13:26:14;2.53;;;1.10;;
56429;SDS011;42332;52.136;20.666;2023-05-07T13:28:40;3.25;;;1.42;;
56429;SDS011;42332;52.136;20.666;2023-05-07T13:31:05;3.25;;;1.30;;
56429;SDS011;42332;52.136;20.666;2023-05-07T13:33:30;4.03;;;1.58;;
56429;SDS011;42332;52.136;20.666;2023-05-07T13:35:56;4.30;;;1.85;;
56429;SDS011;42332;52.136;20.666;2023-05-07T13:38:22;4.53;;;1.85;;
56429;SDS011;42332;52.136;20.666;2023-05-07T13:40:47;3.00;;;1.20;;
56429;SDS011;42332;52.136;20.666;2023-05-07T13:43:13;3.35;;;1.45;;
56429;SDS011;42332;52.136;20.666;2023-05-07T13:45:39;5.75;;;1.40;;
56429;SDS011;42332;52.136;20.666;2023-05-07T13:48:04;5.30;;;2.00;;
56429;SDS011;42332;52.136;20.666;2023-05-07T13:50:30;8.60;;;1.75;;
56429;SDS011;42332;52.136;20.666;2023-05-07T13:52:55;3.88;;;1.45;;
56429;SDS011;42332;52.136;20.666;2023-05-07T13:55:21;4.60;;;1.50;;
56429;SDS011;42332;52.136;20.666;2023-05-07T13:57:47;3.63;;;1.40;;
56429;SDS011;42332;52.136;20.666;2023-05-07T14:00:20;3.25;;;1.45;;
56429;SDS011;42332;52.136;20.666;2023-05-07T14:02:45;3.60;;;1.60;;
56429;SDS011;42332;52.136;20.666;2023-05-07T14:05:11;3.72;;;1.80;;
56429;SDS011;42332;52.136;20.666;2023-05-07T14:07:38;4.30;;;1.80;;
56429;SDS011;42332;52.136;20.666;2023-05-07T14:10:03;3.92;;;1.50;;
56429;SDS011;42332;52.136;20.666;2023-05-07T14:12:29;5.90;;;1.98;;
56429;SDS011;42332;52.136;20.666;2023-05-07T14:14:54;5.60;;;1.50;;
56429;SDS011;42332;52.136;20.666;2023-05-07T14:17:20;3.45;;;1.35;;
56429;SDS011;42332;52.136;20.666;2023-05-07T14:19:45;3.03;;;1.40;;
56429;SDS011;42332;52.136;20.666;2023-05-07T14:22:12;2.78;;;1.17;;
56429;SDS011;42332;52.136;20.666;2023-05-07T14:24:38;3.75;;;1.38;;
56429;SDS011;42332;52.136;20.666;2023-05-07T14:27:04;3.17;;;1.50;;
56429;SDS011;42332;52.136;20.666;2023-05-07T14:29:30;5.15;;;1.33;;
56429;SDS011;42332;52.136;20.666;2023-05-07T14:31:56;4.70;;;1.88;;
56429;SDS011;42332;52.136;20.666;2023-05-07T14:34:21;3.80;;;1.38;;
56429;SDS011;42332;52.136;20.666;2023-05-07T14:36:46;3.65;;;1.30;;
56429;SDS011;42332;52.136;20.666;2023-05-07T14:39:11;3.40;;;1.35;;
56429;SDS011;42332;52.136;20.666;2023-05-07T14:41:37;6.18;;;1.30;;
56429;SDS011;42332;52.136;20.666;2023-05-07T14:44:02;3.00;;;1.30;;
56429;SDS011;42332;52.136;20.666;2023-05-07T14:46:29;5.25;;;1.92;;
56429;SDS011;42332;52.136;20.666;2023-05-07T14:48:54;3.70;;;1.40;;
56429;SDS011;42332;52.136;20.666;2023-05-07T14:51:20;3.80;;;1.27;;